MSC Poh Lin — H8FC — position and weather

sailwx.info

Track history (hours):
 
Tides and Currents Weather Stations Pressure Air Temp Water Temp Dewpoint Dewpoint Depression Visibility Wind Speed Wind Dir Waves Ship Positions

MSC Poh Lin

Last reported at 2017-Mar-26 10:34 UTC. Time now 2017-Mar-26 13:09 UTC.
Position N 37°50' E 015°45'.

Length 294 m; draft 13.5 m.

Type: Ship (hazmat cat A). MMSI: 357405000.

Date/timePositionNaut miles runAvg speedWind from/ knotsBaromVisibWave heightAir tempDewpointWater temp
2017-Mar-26 10:34N 37°50' E 015°45'1615.5
2017-Mar-26 09:33N 38°03' E 015°33'1716.9
2017-Mar-26 08:33N 38°18' E 015°41'1312.9
2017-Mar-26 07:33N 38°27' E 015°54'1 0.8
2017-Mar-26 06:29N 38°28' E 015°54'0 0.0
2017-Mar-26 04:26N 38°28' E 015°54'0 0.0
2017-Mar-26 03:29N 38°28' E 015°54'0 0.0
2017-Mar-26 01:32N 38°28' E 015°54'0 0.0
2017-Mar-26 00:29N 38°28' E 015°54'0 0.0
2017-Mar-25 23:29N 38°28' E 015°54'0 0.0
2017-Mar-25 22:32N 38°28' E 015°54'0 0.0
2017-Mar-25 21:32N 38°28' E 015°54'0 0.0
2017-Mar-25 20:32N 38°28' E 015°54'0 0.0
2017-Mar-25 19:32N 38°28' E 015°54'0 0.0
2017-Mar-25 18:32N 38°28' E 015°54'0 0.0
2017-Mar-25 17:29N 38°28' E 015°54'0 0.0
2017-Mar-25 16:32N 38°28' E 015°54'0 0.0
2017-Mar-25 15:32N 38°28' E 015°54'0 0.0
2017-Mar-25 14:29N 38°28' E 015°54'0 0.0
2017-Mar-25 13:32N 38°28' E 015°54'0 0.0
2017-Mar-25 12:32N 38°28' E 015°54'0 0.0
2017-Mar-25 11:29N 38°28' E 015°54'0 0.0
2017-Mar-25 10:32N 38°28' E 015°54'0 0.0
2017-Mar-25 09:32N 38°28' E 015°54'0 0.0
2017-Mar-25 08:32N 38°28' E 015°54'0 0.0
2017-Mar-25 07:29N 38°28' E 015°54'0 0.0
2017-Mar-25 06:33N 38°28' E 015°54'2 2.4
2017-Mar-25 05:33N 38°28' E 015°51'5 4.7
2017-Mar-25 04:33N 38°31' E 015°48'1616.2
2017-Mar-25 03:33N 38°45' E 015°36'2019.9
2017-Mar-25 02:33N 39°01' E 015°22'10120.1
2017-Mar-24 21:33N 40°25' E 014°10'1817.6
2017-Mar-24 20:33N 40°43' E 014°13'8 8.0
2017-Mar-24 19:33N 40°50' E 014°17'0 0.0
2017-Mar-24 18:33N 40°50' E 014°17'0 0.0
2017-Mar-24 17:33N 40°50' E 014°17'0 0.0
2017-Mar-24 16:33N 40°50' E 014°17'0 0.0
2017-Mar-24 13:30N 40°50' E 014°17'0 0.0
2017-Mar-24 12:30N 40°50' E 014°17'0 0.0
2017-Mar-24 11:33N 40°50' E 014°17'0 0.0
2017-Mar-24 10:33N 40°50' E 014°17'0 0.0
2017-Mar-24 09:33N 40°50' E 014°17'0 0.2
2017-Mar-24 08:33N 40°50' E 014°17'6 6.3
2017-Mar-24 07:33N 40°44' E 014°15'1613.9
2017-Mar-24 06:26N 40°37' E 013°57'22717.0
2017-Mar-23 17:05N 42°60' E 010°00'1018.9
2017-Mar-23 16:33N 43°09' E 009°54'1918.7
2017-Mar-23 15:33N 43°25' E 009°42'2020.0
2017-Mar-23 14:33N 43°45' E 009°49'1818.5
2017-Mar-23 13:33N 44°03' E 009°52'4 3.5
2017-Mar-23 12:31N 44°06' E 009°51'0 0.0
2017-Mar-23 11:31N 44°06' E 009°51'0 0.0
2017-Mar-23 10:28N 44°06' E 009°51'0 0.0
2017-Mar-23 09:31N 44°06' E 009°51'0 0.0
2017-Mar-23 08:31N 44°06' E 009°51'0 0.0
2017-Mar-23 07:31N 44°06' E 009°51'0 0.0
2017-Mar-23 06:28N 44°06' E 009°51'0 0.0
2017-Mar-23 05:31N 44°06' E 009°51'0 0.0
2017-Mar-23 04:31N 44°06' E 009°51'0 0.0
2017-Mar-23 03:28N 44°06' E 009°51'0 0.0
2017-Mar-23 02:31N 44°06' E 009°51'0 0.0
2017-Mar-23 01:31N 44°06' E 009°51'0 0.0
2017-Mar-23 00:31N 44°06' E 009°51'0 0.0
2017-Mar-22 23:28N 44°06' E 009°51'0 0.0
2017-Mar-22 22:31N 44°06' E 009°51'0 0.0
2017-Mar-22 21:31N 44°06' E 009°51'0 0.0
2017-Mar-22 20:25N 44°06' E 009°51'0 0.0
2017-Mar-22 19:31N 44°06' E 009°51'0 0.0
2017-Mar-22 18:31N 44°06' E 009°51'0 0.0
2017-Mar-22 17:31N 44°06' E 009°51'0 0.3
2017-Mar-22 16:33N 44°06' E 009°51'5 4.9
2017-Mar-22 15:33N 44°02' E 009°54'2 1.9
2017-Mar-22 14:33N 44°00' E 009°55'0 0.3
2017-Mar-22 13:33N 44°00' E 009°56'3 2.8
2017-Mar-22 12:33N 43°57' E 009°55'2 2.1
2017-Mar-22 11:33N 43°56' E 009°54'7 6.7
2017-Mar-22 10:33N 43°50' E 009°48'8 7.7
2017-Mar-22 09:33N 43°44' E 009°42'6 6.5
2017-Mar-22 08:33N 43°41' E 009°34'1515.1
2017-Mar-22 07:33N 43°29' E 009°21'2120.8
2017-Mar-22 06:33N 43°14' E 009°02'33619.2
2017-Mar-21 13:07N 39°10' E 003°56'1017.5
2017-Mar-21 12:33N 39°05' E 003°45'1817.6
2017-Mar-21 11:33N 38°56' E 003°25'1818.1
2017-Mar-21 10:33N 38°47' E 003°05'2019.5
2017-Mar-21 09:33N 38°37' E 002°43'2019.7
2017-Mar-21 08:33N 38°27' E 002°22'5818.3
2017-Mar-21 05:23N 37°58' E 001°18'1518.4
2017-Mar-21 04:33N 37°50' E 001°01'1818.4
2017-Mar-21 03:33N 37°41' E 000°41'1919.2
2017-Mar-21 02:33N 37°31' E 000°20'1818.4
2017-Mar-21 01:33N 37°22' W 000°00'3718.1
2017-Mar-20 23:31N 37°03' W 000°40'22518.3
2017-Mar-20 11:12N 35°60' W 005°08'1319.8
2017-Mar-20 10:33N 35°59' W 005°24'2019.8
2017-Mar-20 09:33N 35°55' W 005°48'8620.8
2017-Mar-20 05:26N 36°11' W 007°32'1820.8
2017-Mar-20 04:33N 36°16' W 007°54'4120.3
2017-Mar-20 02:33N 36°25' W 008°43'2519.9
2017-Mar-20 01:17N 36°32' W 009°13'2020.4
2017-Mar-20 00:19N 36°46' W 009°31'2420.8
2017-Mar-19 23:09N 37°09' W 009°41'1220.8
2017-Mar-19 22:33N 37°21' W 009°44'2520.7
2017-Mar-19 21:21N 37°45' W 009°50'1620.4
2017-Mar-19 20:33N 38°01' W 009°55'2020.3
2017-Mar-19 19:33N 38°21' W 010°02'2120.6
2017-Mar-19 18:33N 38°41' W 010°07'2120.7
2017-Mar-19 17:33N 39°02' W 010°06'2120.6
2017-Mar-19 16:33N 39°22' W 010°06'2320.8
2017-Mar-19 15:27N 39°45' W 010°07'2820.7
2017-Mar-19 14:06N 40°13' W 010°07'51320.1
2017-Mar-18 12:31N 48°19' W 006°15'2121.3
2017-Mar-18 11:33N 48°36' W 005°60'2120.7
2017-Mar-18 10:32N 48°54' W 005°43'2319.5
2017-Mar-18 09:22N 49°05' W 005°12'7618.5
2017-Mar-18 05:14N 49°44' W 003°31'1420.6
2017-Mar-18 04:34N 49°51' W 003°12'2120.7
2017-Mar-18 03:33N 49°59' W 002°42'2519.4
2017-Mar-18 02:15N 50°01' W 002°03'1318.7
2017-Mar-18 01:34N 49°58' W 001°44'1817.8
2017-Mar-18 00:33N 49°54' W 001°17'1717.2
2017-Mar-17 23:33N 49°46' W 000°53'1817.7
2017-Mar-17 22:33N 49°38' W 000°28'1615.5
2017-Mar-17 21:33N 49°32' W 000°07'1010.1
2017-Mar-17 20:33N 49°28' E 000°08'1 0.7
2017-Mar-17 19:33N 49°28' E 000°09'0 0.0
2017-Mar-17 18:33N 49°28' E 000°09'0 0.0
2017-Mar-17 17:33N 49°28' E 000°09'0 0.0
2017-Mar-17 16:33N 49°28' E 000°09'0 0.0
2017-Mar-17 15:33N 49°28' E 000°09'0 0.0
2017-Mar-17 14:33N 49°28' E 000°09'0 0.0
2017-Mar-17 13:33N 49°28' E 000°09'0 0.0
2017-Mar-17 12:33N 49°28' E 000°09'0 0.0
2017-Mar-17 11:33N 49°28' E 000°09'0 0.0
2017-Mar-17 10:33N 49°28' E 000°09'0 0.0
2017-Mar-17 09:33N 49°28' E 000°09'0 0.0
2017-Mar-17 08:33N 49°28' E 000°09'0 0.0
2017-Mar-17 07:33N 49°28' E 000°09'3 3.0
2017-Mar-17 06:33N 49°29' E 000°05'9 9.4
2017-Mar-17 05:34N 49°32' W 000°09'1111.3
2017-Mar-17 04:33N 49°44' W 000°10'2121.2
2017-Mar-17 03:33N 50°05' W 000°07'2121.1
2017-Mar-17 02:33N 50°26' W 000°03'2120.2
2017-Mar-17 01:31N 50°33' E 000°28'1919.7
2017-Mar-17 00:33N 50°43' E 000°53'2020.4
2017-Mar-16 23:33N 50°55' E 001°19'2323.3
2017-Mar-16 22:34N 51°12' E 001°45'2121.5
2017-Mar-16 21:33N 51°33' E 001°50'1919.3
2017-Mar-16 20:33N 51°51' E 001°39'1312.7
2017-Mar-16 19:33N 51°41' E 001°27'1818.3
2017-Mar-16 18:33N 51°30' E 001°02'1717.1
2017-Mar-16 17:34N 51°30' E 000°35'3 3.4
2017-Mar-16 16:34N 51°30' E 000°29'0 0.0
2017-Mar-16 15:34N 51°30' E 000°29'0 0.0
2017-Mar-16 14:33N 51°30' E 000°29'0 0.0
2017-Mar-16 13:33N 51°30' E 000°29'0 0.0
2017-Mar-16 12:34N 51°30' E 000°29'0 0.0
2017-Mar-16 11:34N 51°30' E 000°29'  
Track history (hours):
 
Tides and Currents Weather Stations Pressure Air Temp Water Temp Dewpoint Dewpoint Depression Visibility Wind Speed Wind Dir Waves Ship Positions

MSC Poh Lin

Last reported at 2017-Mar-26 10:34 UTC. Time now 2017-Mar-26 13:09 UTC.
Position N 37°50' E 015°45'.

Length 294 m; draft 13.5 m.

Type: Ship (hazmat cat A). MMSI: 357405000.

Date/timePositionNaut miles runAvg speedWind from/ knotsBaromVisibWave heightAir tempDewpointWater temp
2017-Mar-26 10:34N 37°50' E 015°45'1615.5
2017-Mar-26 09:33N 38°03' E 015°33'1716.9
2017-Mar-26 08:33N 38°18' E 015°41'1312.9
2017-Mar-26 07:33N 38°27' E 015°54'1 0.8
2017-Mar-26 06:29N 38°28' E 015°54'0 0.0
2017-Mar-26 04:26N 38°28' E 015°54'0 0.0
2017-Mar-26 03:29N 38°28' E 015°54'0 0.0
2017-Mar-26 01:32N 38°28' E 015°54'0 0.0
2017-Mar-26 00:29N 38°28' E 015°54'0 0.0
2017-Mar-25 23:29N 38°28' E 015°54'0 0.0
2017-Mar-25 22:32N 38°28' E 015°54'0 0.0
2017-Mar-25 21:32N 38°28' E 015°54'0 0.0
2017-Mar-25 20:32N 38°28' E 015°54'0 0.0
2017-Mar-25 19:32N 38°28' E 015°54'0 0.0
2017-Mar-25 18:32N 38°28' E 015°54'0 0.0
2017-Mar-25 17:29N 38°28' E 015°54'0 0.0
2017-Mar-25 16:32N 38°28' E 015°54'0 0.0
2017-Mar-25 15:32N 38°28' E 015°54'0 0.0
2017-Mar-25 14:29N 38°28' E 015°54'0 0.0
2017-Mar-25 13:32N 38°28' E 015°54'0 0.0
2017-Mar-25 12:32N 38°28' E 015°54'0 0.0
2017-Mar-25 11:29N 38°28' E 015°54'0 0.0
2017-Mar-25 10:32N 38°28' E 015°54'0 0.0
2017-Mar-25 09:32N 38°28' E 015°54'0 0.0
2017-Mar-25 08:32N 38°28' E 015°54'0 0.0
2017-Mar-25 07:29N 38°28' E 015°54'0 0.0
2017-Mar-25 06:33N 38°28' E 015°54'2 2.4
2017-Mar-25 05:33N 38°28' E 015°51'5 4.7
2017-Mar-25 04:33N 38°31' E 015°48'1616.2
2017-Mar-25 03:33N 38°45' E 015°36'2019.9
2017-Mar-25 02:33N 39°01' E 015°22'10120.1
2017-Mar-24 21:33N 40°25' E 014°10'1817.6
2017-Mar-24 20:33N 40°43' E 014°13'8 8.0
2017-Mar-24 19:33N 40°50' E 014°17'0 0.0
2017-Mar-24 18:33N 40°50' E 014°17'0 0.0
2017-Mar-24 17:33N 40°50' E 014°17'0 0.0
2017-Mar-24 16:33N 40°50' E 014°17'0 0.0
2017-Mar-24 13:30N 40°50' E 014°17'0 0.0
2017-Mar-24 12:30N 40°50' E 014°17'0 0.0
2017-Mar-24 11:33N 40°50' E 014°17'0 0.0
2017-Mar-24 10:33N 40°50' E 014°17'0 0.0
2017-Mar-24 09:33N 40°50' E 014°17'0 0.2
2017-Mar-24 08:33N 40°50' E 014°17'6 6.3
2017-Mar-24 07:33N 40°44' E 014°15'1613.9
2017-Mar-24 06:26N 40°37' E 013°57'22717.0
2017-Mar-23 17:05N 42°60' E 010°00'1018.9
2017-Mar-23 16:33N 43°09' E 009°54'1918.7
2017-Mar-23 15:33N 43°25' E 009°42'2020.0
2017-Mar-23 14:33N 43°45' E 009°49'1818.5
2017-Mar-23 13:33N 44°03' E 009°52'4 3.5
2017-Mar-23 12:31N 44°06' E 009°51'0 0.0
2017-Mar-23 11:31N 44°06' E 009°51'0 0.0
2017-Mar-23 10:28N 44°06' E 009°51'0 0.0
2017-Mar-23 09:31N 44°06' E 009°51'0 0.0
2017-Mar-23 08:31N 44°06' E 009°51'0 0.0
2017-Mar-23 07:31N 44°06' E 009°51'0 0.0
2017-Mar-23 06:28N 44°06' E 009°51'0 0.0
2017-Mar-23 05:31N 44°06' E 009°51'0 0.0
2017-Mar-23 04:31N 44°06' E 009°51'0 0.0
2017-Mar-23 03:28N 44°06' E 009°51'0 0.0
2017-Mar-23 02:31N 44°06' E 009°51'0 0.0
2017-Mar-23 01:31N 44°06' E 009°51'0 0.0
2017-Mar-23 00:31N 44°06' E 009°51'0 0.0
2017-Mar-22 23:28N 44°06' E 009°51'0 0.0
2017-Mar-22 22:31N 44°06' E 009°51'0 0.0
2017-Mar-22 21:31N 44°06' E 009°51'0 0.0
2017-Mar-22 20:25N 44°06' E 009°51'0 0.0
2017-Mar-22 19:31N 44°06' E 009°51'0 0.0
2017-Mar-22 18:31N 44°06' E 009°51'0 0.0
2017-Mar-22 17:31N 44°06' E 009°51'0 0.3
2017-Mar-22 16:33N 44°06' E 009°51'5 4.9
2017-Mar-22 15:33N 44°02' E 009°54'2 1.9
2017-Mar-22 14:33N 44°00' E 009°55'0 0.3
2017-Mar-22 13:33N 44°00' E 009°56'3 2.8
2017-Mar-22 12:33N 43°57' E 009°55'2 2.1
2017-Mar-22 11:33N 43°56' E 009°54'7 6.7
2017-Mar-22 10:33N 43°50' E 009°48'8 7.7
2017-Mar-22 09:33N 43°44' E 009°42'6 6.5
2017-Mar-22 08:33N 43°41' E 009°34'1515.1
2017-Mar-22 07:33N 43°29' E 009°21'2120.8
2017-Mar-22 06:33N 43°14' E 009°02'33619.2
2017-Mar-21 13:07N 39°10' E 003°56'1017.5
2017-Mar-21 12:33N 39°05' E 003°45'1817.6
2017-Mar-21 11:33N 38°56' E 003°25'1818.1
2017-Mar-21 10:33N 38°47' E 003°05'2019.5
2017-Mar-21 09:33N 38°37' E 002°43'2019.7
2017-Mar-21 08:33N 38°27' E 002°22'5818.3
2017-Mar-21 05:23N 37°58' E 001°18'1518.4
2017-Mar-21 04:33N 37°50' E 001°01'1818.4
2017-Mar-21 03:33N 37°41' E 000°41'1919.2
2017-Mar-21 02:33N 37°31' E 000°20'1818.4
2017-Mar-21 01:33N 37°22' W 000°00'3718.1
2017-Mar-20 23:31N 37°03' W 000°40'22518.3
2017-Mar-20 11:12N 35°60' W 005°08'1319.8
2017-Mar-20 10:33N 35°59' W 005°24'2019.8
2017-Mar-20 09:33N 35°55' W 005°48'8620.8
2017-Mar-20 05:26N 36°11' W 007°32'1820.8
2017-Mar-20 04:33N 36°16' W 007°54'4120.3
2017-Mar-20 02:33N 36°25' W 008°43'2519.9
2017-Mar-20 01:17N 36°32' W 009°13'2020.4
2017-Mar-20 00:19N 36°46' W 009°31'2420.8
2017-Mar-19 23:09N 37°09' W 009°41'1220.8
2017-Mar-19 22:33N 37°21' W 009°44'2520.7
2017-Mar-19 21:21N 37°45' W 009°50'1620.4
2017-Mar-19 20:33N 38°01' W 009°55'2020.3
2017-Mar-19 19:33N 38°21' W 010°02'2120.6
2017-Mar-19 18:33N 38°41' W 010°07'2120.7
2017-Mar-19 17:33N 39°02' W 010°06'2120.6
2017-Mar-19 16:33N 39°22' W 010°06'2320.8
2017-Mar-19 15:27N 39°45' W 010°07'2820.7
2017-Mar-19 14:06N 40°13' W 010°07'51320.1
2017-Mar-18 12:31N 48°19' W 006°15'2121.3
2017-Mar-18 11:33N 48°36' W 005°60'2120.7
2017-Mar-18 10:32N 48°54' W 005°43'2319.5
2017-Mar-18 09:22N 49°05' W 005°12'7618.5
2017-Mar-18 05:14N 49°44' W 003°31'1420.6
2017-Mar-18 04:34N 49°51' W 003°12'2120.7
2017-Mar-18 03:33N 49°59' W 002°42'2519.4
2017-Mar-18 02:15N 50°01' W 002°03'1318.7
2017-Mar-18 01:34N 49°58' W 001°44'1817.8
2017-Mar-18 00:33N 49°54' W 001°17'1717.2
2017-Mar-17 23:33N 49°46' W 000°53'1817.7
2017-Mar-17 22:33N 49°38' W 000°28'1615.5
2017-Mar-17 21:33N 49°32' W 000°07'1010.1
2017-Mar-17 20:33N 49°28' E 000°08'1 0.7
2017-Mar-17 19:33N 49°28' E 000°09'0 0.0
2017-Mar-17 18:33N 49°28' E 000°09'0 0.0
2017-Mar-17 17:33N 49°28' E 000°09'0 0.0
2017-Mar-17 16:33N 49°28' E 000°09'0 0.0
2017-Mar-17 15:33N 49°28' E 000°09'0 0.0
2017-Mar-17 14:33N 49°28' E 000°09'0 0.0
2017-Mar-17 13:33N 49°28' E 000°09'0 0.0
2017-Mar-17 12:33N 49°28' E 000°09'0 0.0
2017-Mar-17 11:33N 49°28' E 000°09'0 0.0
2017-Mar-17 10:33N 49°28' E 000°09'0 0.0
2017-Mar-17 09:33N 49°28' E 000°09'0 0.0
2017-Mar-17 08:33N 49°28' E 000°09'0 0.0
2017-Mar-17 07:33N 49°28' E 000°09'3 3.0
2017-Mar-17 06:33N 49°29' E 000°05'9 9.4
2017-Mar-17 05:34N 49°32' W 000°09'1111.3
2017-Mar-17 04:33N 49°44' W 000°10'2121.2
2017-Mar-17 03:33N 50°05' W 000°07'2121.1
2017-Mar-17 02:33N 50°26' W 000°03'2120.2
2017-Mar-17 01:31N 50°33' E 000°28'1919.7
2017-Mar-17 00:33N 50°43' E 000°53'2020.4
2017-Mar-16 23:33N 50°55' E 001°19'2323.3
2017-Mar-16 22:34N 51°12' E 001°45'2121.5
2017-Mar-16 21:33N 51°33' E 001°50'1919.3
2017-Mar-16 20:33N 51°51' E 001°39'1312.7
2017-Mar-16 19:33N 51°41' E 001°27'1818.3
2017-Mar-16 18:33N 51°30' E 001°02'1717.1
2017-Mar-16 17:34N 51°30' E 000°35'3 3.4
2017-Mar-16 16:34N 51°30' E 000°29'0 0.0
2017-Mar-16 15:34N 51°30' E 000°29'0 0.0
2017-Mar-16 14:33N 51°30' E 000°29'0 0.0
2017-Mar-16 13:33N 51°30' E 000°29'0 0.0
2017-Mar-16 12:34N 51°30' E 000°29'0 0.0
2017-Mar-16 11:34N 51°30' E 000°29'  

Dump ship's entire track history